Time;durP1;ratioP1;P1;durP2;ratioP2;P2;SDS_P1;SDS_P2;PMS_P1;PMS_P2;Temp;Humidity;BMP_temperature;BMP_pressure;BME280_temperature;BME280_humidity;BME280_pressure;Samples;Min_cycle;Max_cycle;Signal;HPM_P1;HPM_P2
2022/09/13 00:01:28;;;;;;;6.60;4.53;;;19.60;99.90;;;;;;5026321;28;20263;-53
2022/09/13 00:03:55;;;;;;;5.50;4.47;;;19.70;99.90;;;;;;5025699;28;20266;-53
2022/09/13 00:06:22;;;;;;;6.00;4.27;;;19.60;99.90;;;;;;5025079;28;20211;-53
2022/09/13 00:08:50;;;;;;;7.90;4.30;;;19.60;99.90;;;;;;5026844;28;20193;-53
2022/09/13 00:11:19;;;;;;;4.60;4.20;;;19.50;99.90;;;;;;5027443;28;20572;-53
2022/09/13 00:13:46;;;;;;;4.90;4.50;;;19.50;99.90;;;;;;5021094;28;20205;-53
2022/09/13 00:16:16;;;;;;;5.67;4.43;;;19.40;99.90;;;;;;5024067;28;20207;-53
2022/09/13 00:18:43;;;;;;;4.50;3.93;;;19.40;99.90;;;;;;5027109;28;20247;-53
2022/09/13 00:21:12;;;;;;;6.30;4.80;;;19.40;99.90;;;;;;5026023;28;20221;-53
2022/09/13 00:23:42;;;;;;;7.23;4.53;;;19.30;99.90;;;;;;5023394;28;20251;-53
2022/09/13 00:26:12;;;;;;;5.67;4.70;;;19.20;99.90;;;;;;5022590;28;20668;-53
2022/09/13 00:28:39;;;;;;;7.93;4.60;;;19.30;99.90;;;;;;5022913;28;20686;-53
2022/09/13 00:31:08;;;;;;;5.67;4.57;;;19.20;99.90;;;;;;5023828;28;20201;-53
2022/09/13 00:33:35;;;;;;;5.87;4.70;;;19.30;99.90;;;;;;5026607;28;20201;-53
2022/09/13 00:36:07;;;;;;;6.57;4.33;;;19.20;99.90;;;;;;5020990;28;20213;-53
2022/09/13 00:38:39;;;;;;;4.80;4.13;;;19.30;99.90;;;;;;5021787;28;20668;-53
2022/09/13 00:41:09;;;;;;;5.63;5.03;;;19.30;99.90;;;;;;5027674;28;20212;-53
2022/09/13 00:43:55;;;;;;;8.43;4.90;;;19.20;99.90;;;;;;5026973;28;20193;-53
2022/09/13 00:46:26;;;;;;;8.40;4.63;;;19.30;99.90;;;;;;5027972;28;20197;-53
2022/09/13 00:49:00;;;;;;;6.13;5.33;;;19.20;99.90;;;;;;5026222;28;20279;-53
2022/09/13 00:51:27;;;;;;;6.03;5.43;;;19.10;99.90;;;;;;5024806;28;20652;-54
2022/09/13 00:53:58;;;;;;;8.40;5.20;;;19.00;99.90;;;;;;5023568;28;20284;-52
2022/09/13 00:56:58;;;;;;;8.23;6.50;;;19.00;99.90;;;;;;5026752;28;20235;-52
2022/09/13 00:59:33;;;;;;;7.27;5.17;;;19.00;99.90;;;;;;5006708;28;20703;-52
2022/09/13 01:02:16;;;;;;;6.43;5.03;;;19.10;99.90;;;;;;5022732;28;20309;-52
2022/09/13 01:05:08;;;;;;;6.00;5.20;;;19.10;99.90;;;;;;5027051;28;20270;-52
2022/09/13 01:07:35;;;;;;;6.70;5.57;;;19.10;99.90;;;;;;5020475;28;20213;-53
2022/09/13 01:10:05;;;;;;;5.87;5.27;;;19.00;99.90;;;;;;5023997;28;20197;-53
2022/09/13 01:12:56;;;;;;;6.17;5.57;;;18.90;99.90;;;;;;5022843;28;20212;-52
2022/09/13 01:15:23;;;;;;;8.63;6.10;;;18.90;99.90;;;;;;5023006;28;20283;-53
2022/09/13 01:17:52;;;;;;;8.20;5.20;;;19.00;99.90;;;;;;5024150;28;20204;-52
2022/09/13 01:20:26;;;;;;;6.43;5.70;;;19.10;99.90;;;;;;5022180;28;21732;-52
2022/09/13 01:23:01;;;;;;;10.27;5.97;;;19.10;99.90;;;;;;5022771;28;20197;-53
2022/09/13 01:26:06;;;;;;;7.07;5.50;;;19.10;99.90;;;;;;5024770;28;20603;-52
2022/09/13 01:28:51;;;;;;;8.10;5.57;;;19.20;99.90;;;;;;5021536;28;20212;-52
2022/09/13 01:31:18;;;;;;;6.83;5.80;;;19.30;99.90;;;;;;5023325;28;20547;-53
2022/09/13 01:34:12;;;;;;;9.27;6.73;;;19.40;99.90;;;;;;5023977;28;20298;-52
2022/09/13 01:37:01;;;;;;;6.00;5.40;;;19.40;99.90;;;;;;5020897;28;20207;-53
2022/09/13 01:40:16;;;;;;;8.10;5.60;;;19.30;99.90;;;;;;5023479;28;20723;-52
2022/09/13 01:43:16;;;;;;;8.40;5.53;;;19.10;99.90;;;;;;5024222;28;20217;-51
2022/09/13 01:46:23;;;;;;;8.93;6.00;;;19.10;99.90;;;;;;5024268;28;20204;-52
2022/09/13 01:49:17;;;;;;;6.17;5.43;;;19.20;99.90;;;;;;5023123;28;20196;-52
2022/09/13 01:51:59;;;;;;;8.20;5.70;;;19.20;99.90;;;;;;5024349;28;20216;-53
2022/09/13 01:55:10;;;;;;;8.87;5.93;;;19.20;99.90;;;;;;5026533;28;20206;-52
2022/09/13 01:57:48;;;;;;;6.73;5.20;;;19.20;99.90;;;;;;4984835;28;20209;-52
2022/09/13 02:00:17;;;;;;;10.27;5.70;;;19.20;99.90;;;;;;5018639;28;20285;-52
2022/09/13 02:02:55;;;;;;;8.17;5.63;;;19.20;99.90;;;;;;5026284;28;20272;-52
2022/09/13 02:05:41;;;;;;;6.63;5.90;;;19.20;99.90;;;;;;5027787;28;20226;-52
2022/09/13 02:08:18;;;;;;;7.03;5.43;;;19.30;99.90;;;;;;5026396;28;20228;-52
2022/09/13 02:10:50;;;;;;;6.07;5.57;;;19.30;99.90;;;;;;5023044;28;20201;-52
2022/09/13 02:13:21;;;;;;;8.37;5.30;;;19.30;99.90;;;;;;5021491;28;20830;-52
2022/09/13 02:15:55;;;;;;;7.77;6.50;;;19.30;99.90;;;;;;5020844;28;20207;-51
2022/09/13 02:18:35;;;;;;;5.90;5.33;;;19.20;99.90;;;;;;5021011;28;20301;-52
2022/09/13 02:21:15;;;;;;;7.37;5.80;;;19.30;99.90;;;;;;5021657;28;20228;-52
2022/09/13 02:23:55;;;;;;;6.93;5.83;;;19.20;99.90;;;;;;5021724;28;20207;-52
2022/09/13 02:26:24;;;;;;;7.97;6.53;;;19.10;99.90;;;;;;5021386;28;20195;-51
2022/09/13 02:28:53;;;;;;;11.33;6.77;;;19.00;99.90;;;;;;5018063;28;20219;-51
2022/09/13 02:31:51;;;;;;;8.67;7.13;;;19.00;99.90;;;;;;5021138;28;20197;-51
2022/09/13 02:34:23;;;;;;;8.23;6.10;;;19.00;99.90;;;;;;5021201;28;20193;-51
2022/09/13 02:37:11;;;;;;;9.17;5.93;;;19.00;99.90;;;;;;5021347;28;20651;-53
2022/09/13 02:39:49;;;;;;;8.47;6.03;;;19.10;99.90;;;;;;5021402;28;20216;-53
2022/09/13 02:42:25;;;;;;;7.77;5.90;;;19.10;99.90;;;;;;5020271;28;20731;-53
2022/09/13 02:44:58;;;;;;;6.73;6.03;;;19.10;99.90;;;;;;5023549;28;20683;-53
2022/09/13 02:48:18;;;;;;;6.63;5.57;;;19.20;99.90;;;;;;5023522;28;20196;-53
2022/09/13 02:51:19;;;;;;;9.00;6.10;;;19.10;99.90;;;;;;5014876;28;20274;-53
2022/09/13 02:54:30;;;;;;;6.80;6.10;;;19.00;99.90;;;;;;5035244;28;20214;-52
2022/09/13 02:57:43;;;;;;;10.30;6.30;;;18.90;99.90;;;;;;4990244;28;20230;-53
2022/09/13 03:00:39;;;;;;;7.37;6.27;;;19.00;99.90;;;;;;5020953;28;20211;-53
2022/09/13 03:03:24;;;;;;;8.27;5.70;;;19.00;99.90;;;;;;5005470;28;20230;-52
2022/09/13 03:06:00;;;;;;;7.40;6.40;;;18.90;99.90;;;;;;5021605;28;20281;-53
2022/09/13 03:08:41;;;;;;;7.83;6.30;;;19.00;99.90;;;;;;5017738;28;20211;-53
2022/09/13 03:11:47;;;;;;;6.87;6.17;;;19.00;99.90;;;;;;5019591;28;20560;-53
2022/09/13 03:14:42;;;;;;;9.03;7.20;;;18.90;99.90;;;;;;5019755;28;20295;-51
2022/09/13 03:18:07;;;;;;;;;;;;;;;;;;;;;
2022/09/13 03:21:34;;;;;;;8.33;6.43;;;18.80;99.90;;;;;;5019188;28;20208;-51
2022/09/13 03:24:14;;;;;;;;;;;;;;;;;;;;;
2022/09/13 03:27:31;;;;;;;8.33;6.90;;;18.70;99.90;;;;;;5021708;28;20656;-53
2022/09/13 03:30:10;;;;;;;11.83;7.73;;;18.50;99.90;;;;;;5021039;28;20651;-52
2022/09/13 03:33:02;;;;;;;8.60;6.87;;;18.50;99.90;;;;;;5018181;28;20207;-52
2022/09/13 03:35:53;;;;;;;8.73;7.00;;;18.50;99.90;;;;;;5021552;28;20257;-52
2022/09/13 03:38:20;;;;;;;12.03;6.43;;;18.70;99.90;;;;;;5022426;28;20226;-52
2022/09/13 03:41:03;;;;;;;10.17;6.17;;;18.80;99.90;;;;;;5021417;28;20226;-52
2022/09/13 03:43:43;;;;;;;10.43;7.77;;;18.60;99.90;;;;;;5024580;28;20202;-53
2022/09/13 03:46:43;;;;;;;10.00;7.33;;;18.70;99.90;;;;;;5022243;28;20603;-53
2022/09/13 03:49:14;;;;;;;7.90;6.83;;;18.70;99.90;;;;;;5020994;28;20625;-52
2022/09/13 03:51:44;;;;;;;9.27;6.80;;;18.90;99.90;;;;;;5027388;28;20202;-53
2022/09/13 03:54:20;;;;;;;10.03;6.97;;;18.90;99.90;;;;;;5026652;28;20208;-52
2022/09/13 03:57:25;;;;;;;8.00;6.53;;;19.00;99.90;;;;;;5025264;28;20203;-54
2022/09/13 03:59:54;;;;;;;8.07;7.20;;;19.00;99.90;;;;;;4945189;28;20661;-53
2022/09/13 04:02:23;;;;;;;8.70;6.60;;;18.90;99.90;;;;;;4946339;28;20620;-53
2022/09/13 04:04:50;;;;;;;9.17;7.03;;;18.90;99.90;;;;;;4929828;29;20306;-53
2022/09/13 04:07:19;;;;;;;11.97;7.43;;;18.90;99.90;;;;;;4948467;29;20331;-53
2022/09/13 04:09:46;;;;;;;7.77;6.70;;;18.90;99.90;;;;;;4945930;28;20255;-52
2022/09/13 04:12:15;;;;;;;10.60;7.43;;;18.90;99.90;;;;;;4946983;28;20214;-52
2022/09/13 04:14:42;;;;;;;11.40;7.73;;;18.90;99.90;;;;;;4946019;28;20199;-53
2022/09/13 04:17:10;;;;;;;8.37;6.93;;;18.90;99.90;;;;;;4928607;29;20567;-52
2022/09/13 04:19:38;;;;;;;8.07;6.67;;;18.70;99.90;;;;;;4946299;28;20730;-52
2022/09/13 04:22:05;;;;;;;9.53;7.47;;;18.60;99.90;;;;;;4940647;28;20215;-53
2022/09/13 04:24:32;;;;;;;8.60;7.70;;;18.70;99.90;;;;;;4940651;28;20222;-52
2022/09/13 04:27:00;;;;;;;8.37;7.50;;;18.70;99.90;;;;;;4942138;28;20208;-53
2022/09/13 04:29:27;;;;;;;9.60;7.30;;;18.70;99.90;;;;;;4942060;28;20195;-52
2022/09/13 04:31:54;;;;;;;9.53;7.63;;;18.80;99.90;;;;;;5023067;28;20197;-53
2022/09/13 04:34:22;;;;;;;10.60;8.00;;;18.80;99.90;;;;;;5023191;28;20196;-52
2022/09/13 04:36:51;;;;;;;9.97;7.90;;;18.80;99.90;;;;;;5020635;28;20201;-51
2022/09/13 04:39:22;;;;;;;12.93;7.80;;;18.80;99.90;;;;;;5022804;28;20205;-53
2022/09/13 04:41:50;;;;;;;9.77;7.67;;;18.80;99.90;;;;;;5020569;28;20213;-53
2022/09/13 04:44:17;;;;;;;8.60;7.80;;;18.80;99.90;;;;;;5022961;28;20678;-53
2022/09/13 04:46:49;;;;;;;14.13;8.17;;;18.80;99.90;;;;;;5023768;28;20680;-52
2022/09/13 04:49:17;;;;;;;11.00;8.17;;;18.80;99.90;;;;;;5039523;28;20272;-53
2022/09/13 04:51:44;;;;;;;9.53;7.63;;;18.80;99.90;;;;;;5021320;28;20229;-53
2022/09/13 04:54:11;;;;;;;10.80;8.03;;;18.80;99.90;;;;;;5021652;28;20212;-53
2022/09/13 04:56:42;;;;;;;10.43;8.40;;;18.90;99.90;;;;;;5028540;28;20571;-54
2022/09/13 04:59:10;;;;;;;12.07;7.33;;;18.80;99.90;;;;;;5025245;28;20228;-53
2022/09/13 05:01:37;;;;;;;9.67;7.97;;;18.90;99.90;;;;;;5025158;28;20296;-53
2022/09/13 05:04:06;;;;;;;10.00;8.13;;;18.90;99.90;;;;;;4987945;28;20649;-53
2022/09/13 05:06:33;;;;;;;11.17;8.30;;;18.90;99.90;;;;;;4984682;28;20197;-53
2022/09/13 05:09:00;;;;;;;11.97;8.27;;;18.90;99.90;;;;;;4987187;28;20226;-52
2022/09/13 05:11:28;;;;;;;9.30;7.93;;;18.90;99.90;;;;;;4988698;28;20198;-52
2022/09/13 05:13:57;;;;;;;11.97;8.00;;;18.90;99.90;;;;;;4988296;28;20194;-53
2022/09/13 05:16:27;;;;;;;15.77;9.53;;;18.80;99.90;;;;;;4988439;28;20281;-52
2022/09/13 05:18:54;;;;;;;11.17;7.83;;;18.80;99.90;;;;;;5001501;28;20661;-52
2022/09/13 05:21:22;;;;;;;9.20;8.10;;;18.90;99.90;;;;;;4982117;28;20635;-52
2022/09/13 05:23:51;;;;;;;11.23;8.70;;;18.90;99.90;;;;;;4984215;28;20225;-52
2022/09/13 05:26:18;;;;;;;9.43;8.53;;;18.90;99.90;;;;;;4987622;28;20195;-55
2022/09/13 05:28:45;;;;;;;11.37;8.67;;;18.80;99.90;;;;;;4988156;28;20650;-54
2022/09/13 05:31:15;;;;;;;9.50;8.37;;;18.70;99.90;;;;;;4988390;28;20198;-54
2022/09/13 05:33:43;;;;;;;12.30;8.33;;;18.70;99.90;;;;;;4981622;28;20651;-54
2022/09/13 05:36:09;;;;;;;9.47;8.43;;;18.60;99.90;;;;;;4983789;28;20199;-54
2022/09/13 05:38:36;;;;;;;10.47;8.77;;;18.60;99.90;;;;;;4983602;28;20289;-53
2022/09/13 05:41:04;;;;;;;11.80;9.13;;;18.50;99.90;;;;;;4984736;28;20202;-53
2022/09/13 05:43:34;;;;;;;10.03;8.83;;;18.30;99.90;;;;;;4984339;28;20220;-53
2022/09/13 05:46:00;;;;;;;14.70;9.27;;;18.40;99.90;;;;;;4984024;28;20646;-53
2022/09/13 05:48:29;;;;;;;11.33;8.83;;;18.40;99.90;;;;;;4984128;28;20198;-53
2022/09/13 05:50:55;;;;;;;10.73;9.47;;;18.50;99.90;;;;;;4978700;28;20708;-52
2022/09/13 05:53:24;;;;;;;11.47;8.70;;;18.50;99.90;;;;;;4625464;28;9999766;-53
2022/09/13 05:55:51;;;;;;;9.73;8.37;;;18.60;99.90;;;;;;4979317;28;20236;-53
2022/09/13 05:58:18;;;;;;;11.23;9.13;;;18.70;99.90;;;;;;4979814;28;20194;-53
2022/09/13 06:00:44;;;;;;;10.07;8.20;;;18.70;99.90;;;;;;4976193;28;20197;-54
2022/09/13 06:03:11;;;;;;;11.83;8.37;;;18.70;99.90;;;;;;5004750;28;20699;-53
2022/09/13 06:05:38;;;;;;;11.00;8.60;;;18.70;99.90;;;;;;5019862;28;20205;-53
2022/09/13 06:08:05;;;;;;;9.93;8.13;;;18.80;99.90;;;;;;5019874;28;20225;-52
2022/09/13 06:10:32;;;;;;;11.43;9.27;;;18.80;99.90;;;;;;5021847;28;20644;-53
2022/09/13 06:12:59;;;;;;;12.50;9.53;;;19.00;99.90;;;;;;5021606;28;20201;-53
2022/09/13 06:15:26;;;;;;;9.30;8.10;;;19.00;99.90;;;;;;5023438;28;20209;-53
2022/09/13 06:17:53;;;;;;;12.83;8.53;;;19.00;99.90;;;;;;5021238;28;20201;-53
2022/09/13 06:20:20;;;;;;;11.47;8.57;;;18.90;99.90;;;;;;5019249;28;20502;-51
2022/09/13 06:22:47;;;;;;;14.27;8.50;;;19.00;99.90;;;;;;5019855;28;20286;-53
2022/09/13 06:25:15;;;;;;;13.47;9.23;;;18.90;99.90;;;;;;5022636;28;20252;-53
2022/09/13 06:27:42;;;;;;;11.27;9.10;;;18.90;99.90;;;;;;5025507;28;20228;-53
2022/09/13 06:30:11;;;;;;;14.20;9.07;;;18.90;99.90;;;;;;5014834;28;20784;-53
2022/09/13 06:32:38;;;;;;;14.07;8.63;;;19.00;99.90;;;;;;5018800;28;20351;-52
2022/09/13 06:35:06;;;;;;;12.20;9.33;;;19.10;99.90;;;;;;5019363;28;20204;-52
2022/09/13 06:37:33;;;;;;;12.13;8.70;;;19.20;99.90;;;;;;5021350;28;20201;-53
2022/09/13 06:40:00;;;;;;;13.77;9.03;;;19.20;99.90;;;;;;5020610;28;20667;-53
2022/09/13 06:42:26;;;;;;;14.97;8.67;;;19.30;99.90;;;;;;5020224;28;20208;-53
2022/09/13 06:44:53;;;;;;;12.97;9.67;;;19.20;99.90;;;;;;5013508;28;20300;-53
2022/09/13 06:47:20;;;;;;;14.60;10.17;;;19.20;99.90;;;;;;5019939;28;20208;-53
2022/09/13 06:49:47;;;;;;;11.73;7.77;;;19.30;99.90;;;;;;5018057;28;20544;-53
2022/09/13 06:52:14;;;;;;;15.67;10.27;;;19.40;99.90;;;;;;5019634;28;20630;-54
2022/09/13 06:54:41;;;;;;;14.33;10.87;;;19.60;99.90;;;;;;5014222;28;20570;-53
2022/09/13 06:57:08;;;;;;;12.33;11.03;;;19.80;99.90;;;;;;5018037;28;20572;-54
2022/09/13 06:59:34;;;;;;;12.27;9.77;;;19.80;99.90;;;;;;5020858;28;20207;-53
2022/09/13 07:02:02;;;;;;;16.07;10.20;;;20.00;99.90;;;;;;5020057;28;20241;-54
2022/09/13 07:04:30;;;;;;;12.63;9.97;;;20.10;99.90;;;;;;5013773;28;20648;-53
2022/09/13 07:06:59;;;;;;;18.33;11.80;;;20.30;99.90;;;;;;5015072;28;20327;-53
2022/09/13 07:09:26;;;;;;;15.63;11.00;;;20.30;99.90;;;;;;5025226;28;20192;-53
2022/09/13 07:11:55;;;;;;;13.93;11.17;;;20.30;99.90;;;;;;5023647;28;20546;-54
2022/09/13 07:14:26;;;;;;;12.47;10.37;;;20.30;99.90;;;;;;5020558;28;20200;-54
2022/09/13 07:16:54;;;;;;;15.20;11.40;;;20.50;99.90;;;;;;5024170;28;20197;-53
2022/09/13 07:19:27;;;;;;;17.27;12.43;;;20.50;99.90;;;;;;5029309;28;20224;-54
2022/09/13 07:21:55;;;;;;;15.90;11.73;;;20.60;99.90;;;;;;5027995;28;20284;-54
2022/09/13 07:24:23;;;;;;;12.93;10.53;;;20.70;99.90;;;;;;5018561;28;20296;-53
2022/09/13 07:26:49;;;;;;;16.60;12.83;;;20.80;99.90;;;;;;5027130;28;20201;-53
2022/09/13 07:29:21;;;;;;;16.63;11.67;;;20.80;99.90;;;;;;5033199;28;20630;-53
2022/09/13 07:31:53;;;;;;;15.73;11.83;;;20.80;99.90;;;;;;5028932;28;20200;-53
2022/09/13 07:34:22;;;;;;;16.63;13.70;;;20.90;99.90;;;;;;5025711;28;20197;-53
2022/09/13 07:36:49;;;;;;;16.53;12.93;;;20.80;99.90;;;;;;5026916;28;20203;-52
2022/09/13 07:39:17;;;;;;;16.17;11.97;;;20.90;99.90;;;;;;5027849;28;20540;-53
2022/09/13 07:41:49;;;;;;;15.63;12.87;;;21.00;99.90;;;;;;5027854;28;20227;-53
2022/09/13 07:44:16;;;;;;;24.07;14.63;;;21.00;99.90;;;;;;5030351;28;20227;-53
2022/09/13 07:46:43;;;;;;;25.57;17.33;;;21.00;99.90;;;;;;5029479;28;20199;-54
2022/09/13 07:49:12;;;;;;;23.47;17.80;;;21.20;99.90;;;;;;5030745;28;20652;-53
2022/09/13 07:51:41;;;;;;;23.17;17.77;;;21.20;99.90;;;;;;5026771;28;20197;-54
2022/09/13 07:54:14;;;;;;;22.63;17.57;;;21.20;99.90;;;;;;5024375;28;20221;-53
2022/09/13 07:56:41;;;;;;;24.40;17.40;;;21.40;99.90;;;;;;5026931;28;20203;-53
2022/09/13 07:59:13;;;;;;;22.00;17.83;;;21.40;99.90;;;;;;5028244;28;20219;-57
2022/09/13 08:01:42;;;;;;;26.40;18.00;;;21.40;99.90;;;;;;5028542;28;20576;-53
2022/09/13 08:04:11;;;;;;;24.23;16.73;;;21.50;99.90;;;;;;5023571;28;20244;-53
2022/09/13 08:06:39;;;;;;;24.87;17.63;;;21.60;99.90;;;;;;5024668;28;20546;-52
2022/09/13 08:09:08;;;;;;;22.20;15.83;;;21.60;99.90;;;;;;5026018;28;20335;-53
2022/09/13 08:11:46;;;;;;;25.27;14.97;;;21.40;99.90;;;;;;5029435;28;20283;-53
2022/09/13 08:14:17;;;;;;;23.47;16.17;;;21.60;99.90;;;;;;5041734;28;20196;-53
2022/09/13 08:16:44;;;;;;;23.63;16.97;;;21.80;99.90;;;;;;5026313;28;20647;-54
2022/09/13 08:19:17;;;;;;;22.83;15.80;;;21.70;99.90;;;;;;5031370;28;20204;-53
2022/09/13 08:21:45;;;;;;;21.83;16.80;;;21.90;99.90;;;;;;5027859;28;20208;-53
2022/09/13 08:24:15;;;;;;;23.60;15.80;;;21.80;99.90;;;;;;5025745;28;20223;-53
2022/09/13 08:26:43;;;;;;;21.97;15.87;;;22.10;99.90;;;;;;5027096;28;21617;-53
2022/09/13 08:29:11;;;;;;;22.80;15.70;;;22.30;99.90;;;;;;5037762;28;21198;-53
2022/09/13 08:31:38;;;;;;;21.20;14.97;;;22.20;99.90;;;;;;5029046;28;20204;-53
2022/09/13 08:34:09;;;;;;;17.90;13.47;;;22.20;99.90;;;;;;5025626;28;20196;-53
2022/09/13 08:36:35;;;;;;;23.73;15.37;;;22.40;99.90;;;;;;5029305;28;20196;-53
2022/09/13 08:39:03;;;;;;;19.80;15.53;;;22.50;99.90;;;;;;5027257;28;20200;-53
2022/09/13 08:41:38;;;;;;;21.23;15.20;;;22.50;99.90;;;;;;5030684;28;20351;-53
2022/09/13 08:44:22;;;;;;;17.50;13.37;;;22.60;99.90;;;;;;5024595;28;20324;-53
2022/09/13 08:46:49;;;;;;;18.07;14.23;;;22.70;99.90;;;;;;5026054;28;20679;-54
2022/09/13 08:49:25;;;;;;;17.93;13.90;;;22.70;99.90;;;;;;5029456;28;20195;-53
2022/09/13 08:51:56;;;;;;;17.70;13.50;;;22.60;99.90;;;;;;5028088;28;20548;-54
2022/09/13 08:54:23;;;;;;;15.40;12.27;;;22.60;99.90;;;;;;5025453;28;20876;-53
2022/09/13 08:56:53;;;;;;;15.60;11.33;;;22.50;99.90;;;;;;5024453;28;20726;-53
2022/09/13 08:59:31;;;;;;;14.20;9.63;;;22.70;99.90;;;;;;5026743;28;20582;-53
2022/09/13 09:02:20;;;;;;;15.37;9.87;;;22.70;99.90;;;;;;5022459;28;20639;-53
2022/09/13 09:05:21;;;;;;;14.33;10.43;;;23.00;99.90;;;;;;5026047;28;20668;-52
2022/09/13 09:07:54;;;;;;;12.73;9.77;;;23.00;99.90;;;;;;5022993;28;20683;-53
2022/09/13 09:10:31;;;;;;;13.47;8.47;;;23.30;99.90;;;;;;5022642;28;20201;-53
2022/09/13 09:13:27;;;;;;;12.50;9.50;;;23.50;99.90;;;;;;5026134;28;20814;-53
2022/09/13 09:16:00;;;;;;;13.13;8.57;;;23.30;99.90;;;;;;5020577;28;20768;-53
2022/09/13 09:18:42;;;;;;;9.17;7.13;;;23.30;99.90;;;;;;5028927;28;20192;-53
2022/09/13 09:21:15;;;;;;;12.23;7.07;;;23.30;99.90;;;;;;5022506;28;20197;-53
2022/09/13 09:23:50;;;;;;;11.67;7.20;;;23.10;99.90;;;;;;5038777;28;20230;-53
2022/09/13 09:26:22;;;;;;;9.30;6.10;;;23.30;99.90;;;;;;5025482;28;20203;-53
2022/09/13 09:28:54;;;;;;;7.20;6.07;;;23.40;99.90;;;;;;5030790;28;20197;-54
2022/09/13 09:31:31;;;;;;;7.60;5.90;;;23.40;99.90;;;;;;5029733;28;20212;-54
2022/09/13 09:34:21;;;;;;;9.03;6.87;;;23.20;99.90;;;;;;5023617;28;20204;-54
2022/09/13 09:37:07;;;;;;;8.13;6.40;;;23.00;99.90;;;;;;4995834;28;20774;-53
2022/09/13 09:39:37;;;;;;;6.83;6.13;;;23.20;99.90;;;;;;5024485;28;20228;-53
2022/09/13 09:42:24;;;;;;;7.87;6.17;;;23.10;99.90;;;;;;5026976;28;20208;-53
2022/09/13 09:44:59;;;;;;;7.27;6.47;;;23.00;99.90;;;;;;5029286;28;20200;-53
2022/09/13 09:47:30;;;;;;;8.17;6.27;;;22.90;99.90;;;;;;5025655;28;20713;-53
2022/09/13 09:50:14;;;;;;;7.80;5.40;;;23.00;99.90;;;;;;5031742;28;20225;-53
2022/09/13 09:52:49;;;;;;;7.13;5.83;;;23.00;99.90;;;;;;5024175;28;20571;-53
2022/09/13 09:55:22;;;;;;;6.73;6.03;;;23.00;99.90;;;;;;5027051;28;20219;-53
2022/09/13 09:57:58;;;;;;;6.37;5.70;;;23.00;99.90;;;;;;5028564;28;20200;-55
2022/09/13 10:00:32;;;;;;;6.93;5.20;;;23.10;99.90;;;;;;5028794;28;20709;-54
2022/09/13 10:03:04;;;;;;;8.20;5.57;;;23.20;99.90;;;;;;5024034;28;20795;-53
2022/09/13 10:05:32;;;;;;;7.63;5.93;;;23.20;99.90;;;;;;5029381;28;20278;-53
2022/09/13 10:08:05;;;;;;;5.83;4.83;;;23.00;99.90;;;;;;5025875;28;20207;-54
2022/09/13 10:10:41;;;;;;;8.27;5.60;;;23.10;99.90;;;;;;5023953;28;20290;-53
2022/09/13 10:13:18;;;;;;;4.93;4.43;;;23.10;99.90;;;;;;5026886;28;20206;-54
2022/09/13 10:16:24;;;;;;;7.27;5.00;;;23.30;99.90;;;;;;5022547;28;20276;-53
2022/09/13 10:18:51;;;;;;;7.60;5.60;;;23.20;99.90;;;;;;5004300;28;20601;-54
2022/09/13 10:21:17;;;;;;;6.77;4.87;;;23.10;99.90;;;;;;5023842;28;20203;-53
2022/09/13 10:23:52;;;;;;;6.07;4.60;;;23.20;99.90;;;;;;5026209;28;20216;-53
2022/09/13 10:26:24;;;;;;;8.03;5.33;;;23.00;99.90;;;;;;5026502;28;20203;-52
2022/09/13 10:29:13;;;;;;;5.70;4.70;;;23.00;99.90;;;;;;5022019;28;20688;-53
2022/09/13 10:31:46;;;;;;;5.93;4.50;;;23.00;99.90;;;;;;5024816;28;20533;-52
2022/09/13 10:34:36;;;;;;;7.30;4.67;;;23.30;99.90;;;;;;5023381;28;20714;-53
2022/09/13 10:37:18;;;;;;;6.43;4.20;;;23.50;99.90;;;;;;5030157;28;20280;-54
2022/09/13 10:39:55;;;;;;;7.77;5.10;;;23.70;99.90;;;;;;5021968;28;20666;-54
2022/09/13 10:42:25;;;;;;;3.10;2.60;;;23.80;99.90;;;;;;5024274;28;20312;-53
2022/09/13 10:44:57;;;;;;;3.10;2.00;;;23.70;99.90;;;;;;5024710;28;20219;-54
2022/09/13 10:47:30;;;;;;;1.60;1.33;;;23.50;99.90;;;;;;5026586;28;20279;-54
2022/09/13 10:50:09;;;;;;;3.10;1.80;;;23.40;99.90;;;;;;5025408;28;20664;-53
2022/09/13 10:52:45;;;;;;;1.73;1.40;;;23.50;99.90;;;;;;5028757;28;20659;-53
2022/09/13 10:55:17;;;;;;;2.10;1.60;;;23.60;99.90;;;;;;5026575;28;20313;-53
2022/09/13 10:58:05;;;;;;;3.07;1.57;;;23.60;99.90;;;;;;5029025;28;20232;-53
2022/09/13 11:00:51;;;;;;;5.30;2.77;;;23.70;99.90;;;;;;5032648;28;20623;-53
2022/09/13 11:03:45;;;;;;;2.93;2.63;;;23.70;99.90;;;;;;5025990;28;20275;-53
2022/09/13 11:06:40;;;;;;;4.10;3.60;;;24.00;99.90;;;;;;5028843;28;20196;-52
2022/09/13 11:09:09;;;;;;;4.77;3.37;;;23.80;99.90;;;;;;5039025;28;20255;-53
2022/09/13 11:11:51;;;;;;;5.17;3.73;;;23.50;99.90;;;;;;5028103;28;20196;-52
2022/09/13 11:14:52;;;;;;;5.03;3.50;;;23.60;99.90;;;;;;5030607;28;20207;-53
2022/09/13 11:18:03;;;;;;;4.77;3.83;;;23.50;99.90;;;;;;5017057;28;20289;-53
2022/09/13 11:21:01;;;;;;;5.33;4.50;;;23.20;99.90;;;;;;5027842;28;20652;-54
2022/09/13 11:24:04;;;;;;;7.73;6.33;;;23.30;99.90;;;;;;5030688;28;20579;-53
2022/09/13 11:26:59;;;;;;;9.17;6.37;;;23.30;99.90;;;;;;5028230;28;20714;-53
2022/09/13 11:29:54;;;;;;;6.83;6.10;;;23.00;99.90;;;;;;5026475;28;20198;-53
2022/09/13 11:32:30;;;;;;;5.77;5.20;;;23.00;99.90;;;;;;5028336;28;20206;-53
2022/09/13 11:35:15;;;;;;;5.30;4.80;;;23.20;99.90;;;;;;5025801;28;20534;-53
2022/09/13 11:37:53;;;;;;;5.87;3.97;;;23.40;99.90;;;;;;5028174;28;20610;-53
2022/09/13 11:40:45;;;;;;;7.07;3.50;;;23.30;99.90;;;;;;5030688;28;20567;-53
2022/09/13 11:43:25;;;;;;;4.07;3.33;;;23.20;99.90;;;;;;5026624;28;20223;-53
2022/09/13 11:46:02;;;;;;;4.00;3.40;;;23.40;99.90;;;;;;5027586;28;20203;-52
2022/09/13 11:48:41;;;;;;;4.20;2.60;;;23.70;99.90;;;;;;5026556;28;20615;-52
2022/09/13 11:51:25;;;;;;;4.27;2.90;;;23.90;99.90;;;;;;5030395;28;20199;-53
2022/09/13 11:54:13;;;;;;;3.60;3.00;;;24.20;99.90;;;;;;5031523;28;20228;-53
2022/09/13 11:56:45;;;;;;;4.23;2.70;;;24.10;99.90;;;;;;5025485;28;20197;-53
2022/09/13 11:59:26;;;;;;;3.93;3.10;;;24.00;99.90;;;;;;5032803;28;20200;-53
2022/09/13 12:01:58;;;;;;;5.17;2.97;;;23.90;99.90;;;;;;5025915;28;20679;-54
2022/09/13 12:04:48;;;;;;;2.90;2.63;;;23.90;99.90;;;;;;5026594;28;20274;-53
2022/09/13 12:07:48;;;;;;;3.90;2.53;;;24.60;99.90;;;;;;5029957;28;20203;-53
2022/09/13 12:10:26;;;;;;;3.60;2.83;;;24.80;99.90;;;;;;5024245;28;20200;-53
2022/09/13 12:12:54;;;;;;;4.13;2.07;;;25.20;99.90;;;;;;5024271;28;20189;-53
2022/09/13 12:15:35;;;;;;;3.87;2.33;;;25.30;99.90;;;;;;5026359;28;20204;-54
2022/09/13 12:18:21;;;;;;;3.77;2.57;;;24.70;99.90;;;;;;5028977;28;20196;-54
2022/09/13 12:20:53;;;;;;;5.03;2.30;;;24.50;99.90;;;;;;5024066;28;20580;-54
2022/09/13 12:23:43;;;;;;;3.20;1.70;;;24.40;99.90;;;;;;5026392;28;20198;-53
2022/09/13 12:26:19;;;;;;;2.27;1.70;;;24.20;99.90;;;;;;5004848;28;20208;-53
2022/09/13 12:29:02;;;;;;;2.37;1.70;;;24.10;99.90;;;;;;5028148;28;20200;-53
2022/09/13 12:31:31;;;;;;;2.63;1.80;;;24.10;99.90;;;;;;5026756;28;20208;-53
2022/09/13 12:33:59;;;;;;;2.87;1.90;;;24.10;99.90;;;;;;5028427;28;20268;-54
2022/09/13 12:36:35;;;;;;;2.60;2.00;;;24.20;99.90;;;;;;5024372;28;20203;-53
2022/09/13 12:39:08;;;;;;;2.53;1.80;;;24.20;99.90;;;;;;5026262;28;20210;-53
2022/09/13 12:41:43;;;;;;;3.47;1.87;;;24.10;99.90;;;;;;5024084;28;20277;-54
2022/09/13 12:44:34;;;;;;;3.00;2.00;;;24.10;99.90;;;;;;5026972;28;20231;-54
2022/09/13 12:47:37;;;;;;;3.10;1.80;;;24.10;99.90;;;;;;5025848;28;20211;-53
2022/09/13 12:50:19;;;;;;;1.97;1.53;;;24.40;99.90;;;;;;5012223;28;20208;-53
2022/09/13 12:53:25;;;;;;;2.47;1.30;;;25.00;99.90;;;;;;5037643;28;20247;-53
2022/09/13 12:56:34;;;;;;;3.53;1.13;;;25.10;99.90;;;;;;5022008;28;20284;-53
2022/09/13 12:59:44;;;;;;;3.50;1.43;;;25.20;99.90;;;;;;5026495;28;20195;-53
2022/09/13 13:02:44;;;;;;;1.67;1.10;;;25.30;99.90;;;;;;4976634;28;20232;-53
2022/09/13 13:05:22;;;;;;;2.87;1.20;;;25.20;99.90;;;;;;5043880;28;20249;-52
2022/09/13 13:07:57;;;;;;;2.55;1.48;;;24.90;99.90;;;;;;5031168;28;20452;-54
2022/09/13 13:10:29;;;;;;;2.17;1.30;;;24.80;99.90;;;;;;5029837;28;20211;-53
2022/09/13 13:13:19;;;;;;;2.60;1.20;;;24.70;99.90;;;;;;5030603;28;20252;-54
2022/09/13 13:15:46;;;;;;;3.53;1.30;;;24.40;99.90;;;;;;5029625;28;20202;-54
2022/09/13 13:18:35;;;;;;;1.23;1.13;;;24.80;99.90;;;;;;5028511;28;20197;-53
2022/09/13 13:21:04;;;;;;;2.15;1.52;;;25.00;99.90;;;;;;5021931;28;20457;-56
2022/09/13 13:23:35;;;;;;;1.53;1.17;;;25.00;99.90;;;;;;5019532;28;20242;-55
2022/09/13 13:26:20;;;;;;;2.27;1.00;;;24.60;99.90;;;;;;5021773;28;20205;-54
2022/09/13 13:28:50;;;;;;;2.33;1.10;;;24.50;99.90;;;;;;5021210;28;20197;-55
2022/09/13 13:31:23;;;;;;;3.23;1.27;;;24.60;99.90;;;;;;5024945;28;20643;-53